sensor_id;sensor_type;location;lat;lon;timestamp;P1;durP1;ratioP1;P2;durP2;ratioP2
13090;SDS011;6611;52.604;13.438;2023-03-20T00:02:58;5.63;;;2.97;;
13090;SDS011;6611;52.604;13.438;2023-03-20T00:08:02;5.17;;;2.57;;
13090;SDS011;6611;52.604;13.438;2023-03-20T00:13:04;3.83;;;2.47;;
13090;SDS011;6611;52.604;13.438;2023-03-20T00:18:10;4.87;;;2.70;;
13090;SDS011;6611;52.604;13.438;2023-03-20T00:23:16;3.70;;;2.80;;
13090;SDS011;6611;52.604;13.438;2023-03-20T00:33:42;3.07;;;2.67;;
13090;SDS011;6611;52.604;13.438;2023-03-20T00:38:45;3.50;;;2.70;;
13090;SDS011;6611;52.604;13.438;2023-03-20T00:43:48;3.77;;;2.77;;
13090;SDS011;6611;52.604;13.438;2023-03-20T00:48:51;4.43;;;3.07;;
13090;SDS011;6611;52.604;13.438;2023-03-20T00:53:55;2.67;;;2.40;;
13090;SDS011;6611;52.604;13.438;2023-03-20T00:58:57;4.57;;;2.87;;
13090;SDS011;6611;52.604;13.438;2023-03-20T01:04:00;2.93;;;2.37;;
13090;SDS011;6611;52.604;13.438;2023-03-20T01:09:03;3.57;;;3.00;;
13090;SDS011;6611;52.604;13.438;2023-03-20T01:14:05;3.53;;;2.63;;
13090;SDS011;6611;52.604;13.438;2023-03-20T01:19:13;3.97;;;3.07;;
13090;SDS011;6611;52.604;13.438;2023-03-20T01:24:17;3.53;;;2.93;;
13090;SDS011;6611;52.604;13.438;2023-03-20T01:29:19;3.67;;;2.90;;
13090;SDS011;6611;52.604;13.438;2023-03-20T01:34:22;4.17;;;3.50;;
13090;SDS011;6611;52.604;13.438;2023-03-20T01:39:27;4.57;;;3.30;;
13090;SDS011;6611;52.604;13.438;2023-03-20T01:44:33;4.27;;;3.13;;
13090;SDS011;6611;52.604;13.438;2023-03-20T01:55:17;4.23;;;3.10;;
13090;SDS011;6611;52.604;13.438;2023-03-20T02:00:20;4.73;;;3.53;;
13090;SDS011;6611;52.604;13.438;2023-03-20T02:05:23;4.50;;;3.40;;
13090;SDS011;6611;52.604;13.438;2023-03-20T02:10:26;4.47;;;3.73;;
13090;SDS011;6611;52.604;13.438;2023-03-20T02:15:28;4.20;;;3.63;;
13090;SDS011;6611;52.604;13.438;2023-03-20T02:20:33;4.80;;;3.97;;
13090;SDS011;6611;52.604;13.438;2023-03-20T02:31:29;4.53;;;3.57;;
13090;SDS011;6611;52.604;13.438;2023-03-20T02:36:55;4.83;;;3.60;;
13090;SDS011;6611;52.604;13.438;2023-03-20T02:42:19;5.83;;;3.90;;
13090;SDS011;6611;52.604;13.438;2023-03-20T02:47:29;4.03;;;3.27;;
13090;SDS011;6611;52.604;13.438;2023-03-20T02:52:38;6.77;;;4.13;;
13090;SDS011;6611;52.604;13.438;2023-03-20T02:57:48;5.33;;;3.80;;
13090;SDS011;6611;52.604;13.438;2023-03-20T03:02:59;4.37;;;3.80;;
13090;SDS011;6611;52.604;13.438;2023-03-20T03:08:08;5.33;;;4.07;;
13090;SDS011;6611;52.604;13.438;2023-03-20T03:13:14;6.23;;;4.50;;
13090;SDS011;6611;52.604;13.438;2023-03-20T03:18:21;7.37;;;4.67;;
13090;SDS011;6611;52.604;13.438;2023-03-20T03:23:28;4.90;;;4.17;;
13090;SDS011;6611;52.604;13.438;2023-03-20T03:28:32;5.70;;;4.47;;
13090;SDS011;6611;52.604;13.438;2023-03-20T03:33:38;4.90;;;4.00;;
13090;SDS011;6611;52.604;13.438;2023-03-20T03:38:43;5.53;;;4.60;;
13090;SDS011;6611;52.604;13.438;2023-03-20T03:43:51;5.67;;;4.60;;
13090;SDS011;6611;52.604;13.438;2023-03-20T03:48:58;7.63;;;4.33;;
13090;SDS011;6611;52.604;13.438;2023-03-20T03:54:04;5.20;;;4.50;;
13090;SDS011;6611;52.604;13.438;2023-03-20T03:59:10;6.17;;;4.90;;
13090;SDS011;6611;52.604;13.438;2023-03-20T04:04:17;6.93;;;5.20;;
13090;SDS011;6611;52.604;13.438;2023-03-20T04:09:22;6.23;;;4.43;;
13090;SDS011;6611;52.604;13.438;2023-03-20T04:14:24;6.60;;;5.17;;
13090;SDS011;6611;52.604;13.438;2023-03-20T04:19:26;7.17;;;5.03;;
13090;SDS011;6611;52.604;13.438;2023-03-20T04:24:29;6.37;;;5.50;;
13090;SDS011;6611;52.604;13.438;2023-03-20T04:29:31;5.63;;;4.63;;
13090;SDS011;6611;52.604;13.438;2023-03-20T04:34:32;7.47;;;5.37;;
13090;SDS011;6611;52.604;13.438;2023-03-20T04:39:35;7.70;;;5.93;;
13090;SDS011;6611;52.604;13.438;2023-03-20T04:44:37;8.30;;;5.67;;
13090;SDS011;6611;52.604;13.438;2023-03-20T04:49:39;8.60;;;5.37;;
13090;SDS011;6611;52.604;13.438;2023-03-20T04:54:42;7.77;;;5.30;;
13090;SDS011;6611;52.604;13.438;2023-03-20T04:59:43;10.30;;;5.73;;
13090;SDS011;6611;52.604;13.438;2023-03-20T05:04:45;7.90;;;5.23;;
13090;SDS011;6611;52.604;13.438;2023-03-20T05:09:48;8.90;;;5.93;;
13090;SDS011;6611;52.604;13.438;2023-03-20T05:14:50;7.40;;;5.87;;
13090;SDS011;6611;52.604;13.438;2023-03-20T05:19:51;7.10;;;5.80;;
13090;SDS011;6611;52.604;13.438;2023-03-20T05:24:55;6.53;;;5.83;;
13090;SDS011;6611;52.604;13.438;2023-03-20T05:29:56;6.90;;;5.87;;
13090;SDS011;6611;52.604;13.438;2023-03-20T05:34:58;7.90;;;5.63;;
13090;SDS011;6611;52.604;13.438;2023-03-20T05:40:01;8.93;;;7.00;;
13090;SDS011;6611;52.604;13.438;2023-03-20T05:45:04;7.10;;;5.40;;
13090;SDS011;6611;52.604;13.438;2023-03-20T05:50:06;7.17;;;5.77;;
13090;SDS011;6611;52.604;13.438;2023-03-20T05:55:10;8.17;;;6.00;;
13090;SDS011;6611;52.604;13.438;2023-03-20T06:00:12;8.10;;;6.00;;
13090;SDS011;6611;52.604;13.438;2023-03-20T06:05:14;10.80;;;6.53;;
13090;SDS011;6611;52.604;13.438;2023-03-20T06:10:18;8.67;;;6.67;;
13090;SDS011;6611;52.604;13.438;2023-03-20T06:15:20;10.43;;;7.10;;
13090;SDS011;6611;52.604;13.438;2023-03-20T06:20:22;8.93;;;6.83;;
13090;SDS011;6611;52.604;13.438;2023-03-20T06:25:25;11.13;;;7.80;;
13090;SDS011;6611;52.604;13.438;2023-03-20T06:30:26;11.97;;;7.30;;
13090;SDS011;6611;52.604;13.438;2023-03-20T06:35:28;11.63;;;8.10;;
13090;SDS011;6611;52.604;13.438;2023-03-20T06:40:32;17.63;;;10.53;;
13090;SDS011;6611;52.604;13.438;2023-03-20T06:45:33;22.43;;;11.73;;
13090;SDS011;6611;52.604;13.438;2023-03-20T06:50:35;24.87;;;13.00;;
13090;SDS011;6611;52.604;13.438;2023-03-20T06:55:39;24.17;;;13.00;;
13090;SDS011;6611;52.604;13.438;2023-03-20T07:00:40;22.67;;;12.87;;
13090;SDS011;6611;52.604;13.438;2023-03-20T07:05:43;23.03;;;12.97;;
13090;SDS011;6611;52.604;13.438;2023-03-20T07:10:47;26.37;;;13.07;;
13090;SDS011;6611;52.604;13.438;2023-03-20T07:15:48;26.60;;;13.57;;
13090;SDS011;6611;52.604;13.438;2023-03-20T07:20:50;28.83;;;13.70;;
13090;SDS011;6611;52.604;13.438;2023-03-20T07:25:53;25.37;;;13.40;;
13090;SDS011;6611;52.604;13.438;2023-03-20T07:30:55;23.27;;;11.40;;
13090;SDS011;6611;52.604;13.438;2023-03-20T07:35:57;23.20;;;11.40;;
13090;SDS011;6611;52.604;13.438;2023-03-20T07:41:00;23.03;;;11.87;;
13090;SDS011;6611;52.604;13.438;2023-03-20T07:46:02;20.47;;;10.93;;
13090;SDS011;6611;52.604;13.438;2023-03-20T07:51:04;20.23;;;9.73;;
13090;SDS011;6611;52.604;13.438;2023-03-20T07:56:08;24.33;;;11.10;;
13090;SDS011;6611;52.604;13.438;2023-03-20T08:01:10;21.43;;;11.50;;
13090;SDS011;6611;52.604;13.438;2023-03-20T08:06:12;20.13;;;10.73;;
13090;SDS011;6611;52.604;13.438;2023-03-20T08:11:15;21.80;;;10.47;;
13090;SDS011;6611;52.604;13.438;2023-03-20T08:16:17;24.10;;;12.23;;
13090;SDS011;6611;52.604;13.438;2023-03-20T08:21:18;18.23;;;10.80;;
13090;SDS011;6611;52.604;13.438;2023-03-20T08:26:21;17.17;;;9.70;;
13090;SDS011;6611;52.604;13.438;2023-03-20T08:31:23;23.73;;;10.63;;
13090;SDS011;6611;52.604;13.438;2023-03-20T08:36:25;23.13;;;9.83;;
13090;SDS011;6611;52.604;13.438;2023-03-20T08:41:28;19.77;;;8.97;;
13090;SDS011;6611;52.604;13.438;2023-03-20T08:46:30;18.77;;;9.30;;
13090;SDS011;6611;52.604;13.438;2023-03-20T08:51:32;17.30;;;8.80;;
13090;SDS011;6611;52.604;13.438;2023-03-20T08:56:35;19.63;;;9.07;;
13090;SDS011;6611;52.604;13.438;2023-03-20T09:01:36;17.17;;;9.23;;
13090;SDS011;6611;52.604;13.438;2023-03-20T09:06:38;14.43;;;7.90;;
13090;SDS011;6611;52.604;13.438;2023-03-20T09:11:42;15.10;;;8.17;;
13090;SDS011;6611;52.604;13.438;2023-03-20T09:16:43;17.37;;;8.23;;
13090;SDS011;6611;52.604;13.438;2023-03-20T09:21:46;14.20;;;7.30;;
13090;SDS011;6611;52.604;13.438;2023-03-20T09:26:49;13.70;;;6.80;;
13090;SDS011;6611;52.604;13.438;2023-03-20T09:31:51;11.30;;;6.80;;
13090;SDS011;6611;52.604;13.438;2023-03-20T09:36:53;12.67;;;7.47;;
13090;SDS011;6611;52.604;13.438;2023-03-20T09:41:57;12.57;;;6.50;;
13090;SDS011;6611;52.604;13.438;2023-03-20T09:47:08;13.53;;;5.73;;
13090;SDS011;6611;52.604;13.438;2023-03-20T09:52:18;10.50;;;5.83;;
13090;SDS011;6611;52.604;13.438;2023-03-20T09:57:25;10.27;;;5.70;;
13090;SDS011;6611;52.604;13.438;2023-03-20T10:02:34;9.57;;;5.80;;
13090;SDS011;6611;52.604;13.438;2023-03-20T10:07:39;8.47;;;4.90;;
13090;SDS011;6611;52.604;13.438;2023-03-20T10:12:54;9.93;;;5.50;;
13090;SDS011;6611;52.604;13.438;2023-03-20T10:18:04;10.60;;;5.63;;
13090;SDS011;6611;52.604;13.438;2023-03-20T10:23:17;9.60;;;5.40;;
13090;SDS011;6611;52.604;13.438;2023-03-20T10:28:28;10.37;;;6.10;;
13090;SDS011;6611;52.604;13.438;2023-03-20T10:33:39;10.47;;;5.33;;
13090;SDS011;6611;52.604;13.438;2023-03-20T10:38:51;10.13;;;5.63;;
13090;SDS011;6611;52.604;13.438;2023-03-20T10:44:00;9.43;;;5.43;;
13090;SDS011;6611;52.604;13.438;2023-03-20T10:49:03;8.17;;;4.03;;
13090;SDS011;6611;52.604;13.438;2023-03-20T10:54:13;7.20;;;4.27;;
13090;SDS011;6611;52.604;13.438;2023-03-20T10:59:25;7.47;;;4.43;;
13090;SDS011;6611;52.604;13.438;2023-03-20T11:04:28;8.57;;;4.90;;
13090;SDS011;6611;52.604;13.438;2023-03-20T11:09:30;6.40;;;3.50;;
13090;SDS011;6611;52.604;13.438;2023-03-20T11:14:35;5.83;;;3.53;;
13090;SDS011;6611;52.604;13.438;2023-03-20T11:19:39;6.20;;;3.80;;
13090;SDS011;6611;52.604;13.438;2023-03-20T11:24:43;6.03;;;3.73;;
13090;SDS011;6611;52.604;13.438;2023-03-20T11:29:49;6.53;;;3.80;;
13090;SDS011;6611;52.604;13.438;2023-03-20T11:34:52;5.40;;;3.67;;
13090;SDS011;6611;52.604;13.438;2023-03-20T11:39:57;5.57;;;3.20;;
13090;SDS011;6611;52.604;13.438;2023-03-20T11:45:02;6.33;;;3.73;;
13090;SDS011;6611;52.604;13.438;2023-03-20T11:50:05;6.03;;;3.40;;
13090;SDS011;6611;52.604;13.438;2023-03-20T11:55:25;5.07;;;3.47;;
13090;SDS011;6611;52.604;13.438;2023-03-20T12:00:34;6.87;;;3.60;;
13090;SDS011;6611;52.604;13.438;2023-03-20T12:05:37;6.73;;;4.20;;
13090;SDS011;6611;52.604;13.438;2023-03-20T12:10:40;7.37;;;4.60;;
13090;SDS011;6611;52.604;13.438;2023-03-20T12:15:45;6.73;;;4.50;;
13090;SDS011;6611;52.604;13.438;2023-03-20T12:20:53;10.23;;;4.40;;
13090;SDS011;6611;52.604;13.438;2023-03-20T12:26:05;6.93;;;4.30;;
13090;SDS011;6611;52.604;13.438;2023-03-20T12:31:18;7.33;;;4.17;;
13090;SDS011;6611;52.604;13.438;2023-03-20T12:36:24;7.50;;;4.60;;
13090;SDS011;6611;52.604;13.438;2023-03-20T12:41:35;7.50;;;4.60;;
13090;SDS011;6611;52.604;13.438;2023-03-20T12:46:44;8.67;;;4.77;;
13090;SDS011;6611;52.604;13.438;2023-03-20T12:51:53;7.53;;;4.57;;
13090;SDS011;6611;52.604;13.438;2023-03-20T12:57:05;6.93;;;4.37;;
13090;SDS011;6611;52.604;13.438;2023-03-20T13:02:26;10.30;;;4.07;;
13090;SDS011;6611;52.604;13.438;2023-03-20T13:07:41;6.17;;;3.90;;
13090;SDS011;6611;52.604;13.438;2023-03-20T13:13:00;7.60;;;4.37;;
13090;SDS011;6611;52.604;13.438;2023-03-20T13:18:13;11.87;;;4.93;;
13090;SDS011;6611;52.604;13.438;2023-03-20T13:23:21;8.83;;;4.40;;
13090;SDS011;6611;52.604;13.438;2023-03-20T13:28:27;8.70;;;4.33;;
13090;SDS011;6611;52.604;13.438;2023-03-20T13:33:38;8.97;;;4.73;;
13090;SDS011;6611;52.604;13.438;2023-03-20T13:38:47;10.60;;;5.40;;
13090;SDS011;6611;52.604;13.438;2023-03-20T13:43:53;9.40;;;5.33;;
13090;SDS011;6611;52.604;13.438;2023-03-20T13:49:00;8.37;;;5.10;;
13090;SDS011;6611;52.604;13.438;2023-03-20T13:54:11;10.37;;;5.43;;
13090;SDS011;6611;52.604;13.438;2023-03-20T14:04:46;9.53;;;4.97;;
13090;SDS011;6611;52.604;13.438;2023-03-20T14:09:52;8.77;;;5.33;;
13090;SDS011;6611;52.604;13.438;2023-03-20T14:14:55;10.63;;;4.87;;
13090;SDS011;6611;52.604;13.438;2023-03-20T14:20:08;10.37;;;5.23;;
13090;SDS011;6611;52.604;13.438;2023-03-20T14:25:16;8.57;;;5.00;;
13090;SDS011;6611;52.604;13.438;2023-03-20T14:30:39;9.37;;;4.90;;
13090;SDS011;6611;52.604;13.438;2023-03-20T14:35:49;7.90;;;4.60;;
13090;SDS011;6611;52.604;13.438;2023-03-20T14:40:53;9.90;;;5.90;;
13090;SDS011;6611;52.604;13.438;2023-03-20T14:46:01;9.03;;;5.07;;
13090;SDS011;6611;52.604;13.438;2023-03-20T14:51:16;11.10;;;5.60;;
13090;SDS011;6611;52.604;13.438;2023-03-20T14:56:26;9.67;;;4.93;;
13090;SDS011;6611;52.604;13.438;2023-03-20T15:01:43;8.47;;;4.53;;
13090;SDS011;6611;52.604;13.438;2023-03-20T15:06:48;9.33;;;4.63;;
13090;SDS011;6611;52.604;13.438;2023-03-20T15:11:54;8.30;;;5.03;;
13090;SDS011;6611;52.604;13.438;2023-03-20T15:17:03;11.43;;;5.63;;
13090;SDS011;6611;52.604;13.438;2023-03-20T15:22:10;8.60;;;5.20;;
13090;SDS011;6611;52.604;13.438;2023-03-20T15:27:16;9.77;;;4.97;;
13090;SDS011;6611;52.604;13.438;2023-03-20T15:32:19;11.30;;;5.77;;
13090;SDS011;6611;52.604;13.438;2023-03-20T15:37:23;13.70;;;6.33;;
13090;SDS011;6611;52.604;13.438;2023-03-20T15:42:27;8.00;;;4.70;;
13090;SDS011;6611;52.604;13.438;2023-03-20T15:47:30;8.67;;;5.30;;
13090;SDS011;6611;52.604;13.438;2023-03-20T15:52:38;8.47;;;5.33;;
13090;SDS011;6611;52.604;13.438;2023-03-20T15:57:42;9.83;;;4.73;;
13090;SDS011;6611;52.604;13.438;2023-03-20T16:02:46;7.77;;;4.90;;
13090;SDS011;6611;52.604;13.438;2023-03-20T16:07:50;7.93;;;4.97;;
13090;SDS011;6611;52.604;13.438;2023-03-20T16:12:52;11.27;;;5.53;;
13090;SDS011;6611;52.604;13.438;2023-03-20T16:17:55;9.40;;;5.40;;
13090;SDS011;6611;52.604;13.438;2023-03-20T16:23:01;10.20;;;4.87;;
13090;SDS011;6611;52.604;13.438;2023-03-20T16:28:05;11.43;;;5.30;;
13090;SDS011;6611;52.604;13.438;2023-03-20T16:33:08;7.57;;;5.10;;
13090;SDS011;6611;52.604;13.438;2023-03-20T16:38:20;10.73;;;5.50;;
13090;SDS011;6611;52.604;13.438;2023-03-20T16:43:25;9.37;;;5.43;;
13090;SDS011;6611;52.604;13.438;2023-03-20T16:48:30;9.20;;;5.23;;
13090;SDS011;6611;52.604;13.438;2023-03-20T16:53:39;9.27;;;5.63;;
13090;SDS011;6611;52.604;13.438;2023-03-20T16:58:43;10.93;;;5.77;;
13090;SDS011;6611;52.604;13.438;2023-03-20T17:03:47;7.43;;;5.20;;
13090;SDS011;6611;52.604;13.438;2023-03-20T17:08:53;10.70;;;5.80;;
13090;SDS011;6611;52.604;13.438;2023-03-20T17:13:56;11.37;;;6.00;;
13090;SDS011;6611;52.604;13.438;2023-03-20T17:18:57;8.90;;;5.57;;
13090;SDS011;6611;52.604;13.438;2023-03-20T17:24:03;9.07;;;5.87;;
13090;SDS011;6611;52.604;13.438;2023-03-20T17:29:05;9.20;;;5.40;;
13090;SDS011;6611;52.604;13.438;2023-03-20T17:34:08;9.57;;;5.70;;
13090;SDS011;6611;52.604;13.438;2023-03-20T17:39:16;10.17;;;6.10;;
13090;SDS011;6611;52.604;13.438;2023-03-20T17:44:19;11.23;;;6.67;;
13090;SDS011;6611;52.604;13.438;2023-03-20T17:49:20;11.93;;;6.10;;
13090;SDS011;6611;52.604;13.438;2023-03-20T17:54:27;10.70;;;6.00;;
13090;SDS011;6611;52.604;13.438;2023-03-20T17:59:29;14.83;;;8.40;;
13090;SDS011;6611;52.604;13.438;2023-03-20T18:04:31;12.43;;;7.53;;
13090;SDS011;6611;52.604;13.438;2023-03-20T18:09:35;11.50;;;6.27;;
13090;SDS011;6611;52.604;13.438;2023-03-20T18:14:36;10.17;;;6.00;;
13090;SDS011;6611;52.604;13.438;2023-03-20T18:19:38;8.53;;;5.20;;
13090;SDS011;6611;52.604;13.438;2023-03-20T18:24:41;9.33;;;4.97;;
13090;SDS011;6611;52.604;13.438;2023-03-20T18:29:43;9.93;;;5.70;;
13090;SDS011;6611;52.604;13.438;2023-03-20T18:34:45;9.13;;;5.87;;
13090;SDS011;6611;52.604;13.438;2023-03-20T18:39:48;8.50;;;4.97;;
13090;SDS011;6611;52.604;13.438;2023-03-20T18:44:49;9.23;;;5.67;;
13090;SDS011;6611;52.604;13.438;2023-03-20T18:49:51;8.50;;;4.80;;
13090;SDS011;6611;52.604;13.438;2023-03-20T18:54:54;6.60;;;4.47;;
13090;SDS011;6611;52.604;13.438;2023-03-20T18:59:56;9.33;;;4.80;;
13090;SDS011;6611;52.604;13.438;2023-03-20T19:04:57;13.17;;;6.23;;
13090;SDS011;6611;52.604;13.438;2023-03-20T19:10:01;9.77;;;6.73;;
13090;SDS011;6611;52.604;13.438;2023-03-20T19:15:03;11.70;;;6.87;;
13090;SDS011;6611;52.604;13.438;2023-03-20T19:20:05;11.97;;;5.73;;
13090;SDS011;6611;52.604;13.438;2023-03-20T19:25:08;8.97;;;5.73;;
13090;SDS011;6611;52.604;13.438;2023-03-20T19:30:13;10.40;;;6.00;;
13090;SDS011;6611;52.604;13.438;2023-03-20T19:35:27;12.60;;;6.10;;
13090;SDS011;6611;52.604;13.438;2023-03-20T19:40:33;11.10;;;6.27;;
13090;SDS011;6611;52.604;13.438;2023-03-20T19:45:38;8.07;;;5.27;;
13090;SDS011;6611;52.604;13.438;2023-03-20T19:50:42;11.70;;;6.07;;
13090;SDS011;6611;52.604;13.438;2023-03-20T19:55:47;11.03;;;5.50;;
13090;SDS011;6611;52.604;13.438;2023-03-20T20:00:49;10.13;;;6.17;;
13090;SDS011;6611;52.604;13.438;2023-03-20T20:05:51;9.00;;;5.57;;
13090;SDS011;6611;52.604;13.438;2023-03-20T20:10:54;9.60;;;5.67;;
13090;SDS011;6611;52.604;13.438;2023-03-20T20:15:55;10.63;;;5.77;;
13090;SDS011;6611;52.604;13.438;2023-03-20T20:20:57;8.67;;;5.43;;
13090;SDS011;6611;52.604;13.438;2023-03-20T20:26:00;9.23;;;5.57;;
13090;SDS011;6611;52.604;13.438;2023-03-20T20:31:03;8.77;;;5.13;;
13090;SDS011;6611;52.604;13.438;2023-03-20T20:36:09;8.67;;;5.57;;
13090;SDS011;6611;52.604;13.438;2023-03-20T20:41:12;9.10;;;5.17;;
13090;SDS011;6611;52.604;13.438;2023-03-20T20:46:15;10.90;;;6.00;;
13090;SDS011;6611;52.604;13.438;2023-03-20T20:51:16;8.13;;;5.43;;
13090;SDS011;6611;52.604;13.438;2023-03-20T20:56:20;8.13;;;5.40;;
13090;SDS011;6611;52.604;13.438;2023-03-20T21:01:22;9.83;;;5.63;;
13090;SDS011;6611;52.604;13.438;2023-03-20T21:06:24;10.30;;;5.93;;
13090;SDS011;6611;52.604;13.438;2023-03-20T21:11:27;8.20;;;5.50;;
13090;SDS011;6611;52.604;13.438;2023-03-20T21:16:28;9.60;;;5.43;;
13090;SDS011;6611;52.604;13.438;2023-03-20T21:21:30;9.37;;;5.47;;
13090;SDS011;6611;52.604;13.438;2023-03-20T21:26:35;8.50;;;5.07;;
13090;SDS011;6611;52.604;13.438;2023-03-20T21:31:37;9.40;;;5.63;;
13090;SDS011;6611;52.604;13.438;2023-03-20T21:36:38;8.00;;;5.30;;
13090;SDS011;6611;52.604;13.438;2023-03-20T21:41:42;11.80;;;5.97;;
13090;SDS011;6611;52.604;13.438;2023-03-20T21:46:44;11.93;;;5.80;;
13090;SDS011;6611;52.604;13.438;2023-03-20T21:51:47;12.30;;;6.83;;
13090;SDS011;6611;52.604;13.438;2023-03-20T21:56:50;8.23;;;5.83;;
13090;SDS011;6611;52.604;13.438;2023-03-20T22:01:52;9.33;;;5.50;;
13090;SDS011;6611;52.604;13.438;2023-03-20T22:06:54;12.17;;;5.83;;
13090;SDS011;6611;52.604;13.438;2023-03-20T22:11:58;10.30;;;6.40;;
13090;SDS011;6611;52.604;13.438;2023-03-20T22:17:00;11.90;;;6.20;;
13090;SDS011;6611;52.604;13.438;2023-03-20T22:22:02;9.07;;;6.30;;
13090;SDS011;6611;52.604;13.438;2023-03-20T22:27:07;10.93;;;6.00;;
13090;SDS011;6611;52.604;13.438;2023-03-20T22:32:09;8.30;;;6.20;;
13090;SDS011;6611;52.604;13.438;2023-03-20T22:37:10;8.27;;;5.63;;
13090;SDS011;6611;52.604;13.438;2023-03-20T22:42:13;8.97;;;5.47;;
13090;SDS011;6611;52.604;13.438;2023-03-20T22:47:15;7.90;;;5.67;;
13090;SDS011;6611;52.604;13.438;2023-03-20T22:52:17;7.23;;;5.40;;
13090;SDS011;6611;52.604;13.438;2023-03-20T22:57:20;8.50;;;5.97;;
13090;SDS011;6611;52.604;13.438;2023-03-20T23:02:21;8.67;;;6.13;;
13090;SDS011;6611;52.604;13.438;2023-03-20T23:07:23;8.80;;;5.97;;
13090;SDS011;6611;52.604;13.438;2023-03-20T23:12:26;9.07;;;6.00;;
13090;SDS011;6611;52.604;13.438;2023-03-20T23:17:28;6.03;;;5.10;;
13090;SDS011;6611;52.604;13.438;2023-03-20T23:22:29;5.07;;;4.20;;
13090;SDS011;6611;52.604;13.438;2023-03-20T23:27:33;6.50;;;4.10;;
13090;SDS011;6611;52.604;13.438;2023-03-20T23:32:35;4.23;;;3.73;;
13090;SDS011;6611;52.604;13.438;2023-03-20T23:37:37;8.17;;;4.23;;
13090;SDS011;6611;52.604;13.438;2023-03-20T23:42:40;7.00;;;4.60;;
13090;SDS011;6611;52.604;13.438;2023-03-20T23:47:42;6.07;;;4.23;;
13090;SDS011;6611;52.604;13.438;2023-03-20T23:52:44;9.33;;;3.90;;
13090;SDS011;6611;52.604;13.438;2023-03-20T23:57:47;8.83;;;4.70;;
